Augusta, Kansas
Current Conditions -  °F | °C
As of 11:55 PM on Thursday 30 Oct 2014 (Local Time) from KEQA Reporting Station
Clear Clear  
Wind Chill: 11°   Ceiling: Unl
Heat Index: 11°   Visibility: 10mi
Dew Point:   Wind: 13mph
Humidity: 58%   Direction: 360°N
Pressure: 30.26"   Gusts: 17mph
Location:  37.68°N, 96.98°W
Report Text: KEQA 310455Z AUTO 36011G15KT 10SM CLR 11/03 A3026 RMK AO2
Loading
Personal Weather Stations






























Interactive Weather Map
Tropical Storm Tracking
New forecast layout! Learn more

10-Day Weather Forecast

Advertisements
Track Severe Weather on mobile